Schedule Details

Flight Number: ASX316X
Departure: Olsztyn Mazury (EPSY) at 13:20Z
Arrival: Gdansk im. Lecha Walesy (EPGD) at 14:20Z

Weather Information
EPSY 172300Z 33004KT 8000 SCT007 M01/M02 Q1022 R01/590293
EPGD 180630Z 29002KT 8000 SCT041 M03/M04 Q1026

Schedule Frequency

Route Map